Time;durP1;ratioP1;P1;durP2;ratioP2;P2;SDS_P1;SDS_P2;PMS_P1;PMS_P2;Temp;Humidity;BMP_temperature;BMP_pressure;BME280_temperature;BME280_humidity;BME280_pressure;Samples;Min_cycle;Max_cycle;Signal;HPM_P1;HPM_P2
2021/04/06 00:00:33;;;;;;;;;;;;;;;17.68;23.99;98667.50;5335373;26;34436;-95
2021/04/06 00:03:01;;;;;;;;;;;;;;;17.82;23.75;98674.34;5354409;26;34594;-94
2021/04/06 00:05:29;;;;;;;;;;;;;;;17.93;23.73;98682.25;5355262;26;33045;-95
2021/04/06 00:07:59;;;;;;;;;;;;;;;16.59;25.74;98672.06;5373549;26;33181;-94
2021/04/06 00:10:28;;;;;;;;;;;;;;;16.45;26.43;98669.63;5372926;26;32951;-93
2021/04/06 00:12:55;;;;;;;;;;;;;;;17.13;25.26;98669.91;5355052;26;32772;-94
2021/04/06 00:15:24;;;;;;;;;;;;;;;17.58;24.73;98672.63;5373962;26;33842;-95
2021/04/06 00:17:53;;;;;;;;;;;;;;;17.25;25.42;98681.31;5357350;26;32139;-94
2021/04/06 00:20:20;;;;;;;;;;;;;;;17.94;24.67;98676.03;5356745;26;33985;-94
2021/04/06 00:22:48;;;;;;;;;;;;;;;17.29;25.42;98669.59;5357092;26;33236;-95
2021/04/06 00:25:19;;;;;;;;;;;;;;;17.22;25.40;98669.22;5356582;26;33460;-93
2021/04/06 00:27:47;;;;;;;;;;;;;;;17.37;25.18;98669.84;5360872;26;32097;-94
2021/04/06 00:30:31;;;;;;;;;;;;;;;17.81;24.61;98664.75;5360449;26;33006;-92
2021/04/06 00:33:06;;;;;;;;;;;;;;;17.60;24.65;98665.44;5376151;26;34086;-94
2021/04/06 00:35:35;;;;;;;;;;;;;;;17.97;23.86;98667.03;5358345;26;32862;-93
2021/04/06 00:38:07;;;;;;;;;;;;;;;17.83;23.87;98654.94;5361052;26;32910;-93
2021/04/06 00:40:37;;;;;;;;;;;;;;;18.28;23.20;98654.06;5361893;26;33349;-94
2021/04/06 00:43:08;;;;;;;;;;;;;;;18.41;22.63;98649.47;5363138;26;34546;-93
2021/04/06 00:45:36;;;;;;;;;;;;;;;17.95;23.44;98653.13;5345237;26;33599;-94
2021/04/06 00:48:17;;;;;;;;;;;;;;;17.89;24.00;98661.50;5355695;26;32195;-93
2021/04/06 00:51:12;;;;;;;;;;;;;;;18.01;24.12;98666.66;5375566;26;33099;-93
2021/04/06 00:53:52;;;;;;;;;;;;;;;18.02;24.07;98673.63;5374396;26;33123;-93
2021/04/06 00:56:24;;;;;;;;;;;;;;;17.96;23.86;98676.75;5337564;26;33057;-94
2021/04/06 00:59:01;;;;;;;;;;;;;;;17.70;23.77;98674.31;5357225;26;32288;-95
2021/04/06 01:01:49;;;;;;;;;;;;;;;17.57;24.56;98678.84;5354943;26;33289;-93
2021/04/06 01:04:17;;;;;;;;;;;;;;;17.52;24.92;98679.22;5391562;26;35058;-94
2021/04/06 01:06:54;;;;;;;;;;;;;;;17.57;24.68;98676.22;5356305;26;33027;-93
2021/04/06 01:09:41;;;;;;;;;;;;;;;17.58;24.60;98692.88;5354914;26;32751;-93
2021/04/06 01:12:10;;;;;;;;;;;;;;;18.00;24.02;98706.31;5374726;26;32721;-94
2021/04/06 01:14:37;;;;;;;;;;;;;;;16.53;26.36;98727.72;5355851;26;33484;-93
2021/04/06 01:17:06;;;;;;;;;;;;;;;16.09;32.38;98752.72;5356153;26;33963;-94
2021/04/06 01:19:37;;;;;;;;;;;;;;;15.16;34.71;98756.31;5357727;26;32909;-93
2021/04/06 01:22:09;;;;;;;;;;;;;;;15.53;33.99;98765.19;5355499;26;32780;-94
2021/04/06 01:24:36;;;;;;;;;;;;;;;15.80;33.27;98781.81;5354498;26;33116;-92
2021/04/06 01:27:13;;;;;;;;;;;;;;;14.55;35.36;98777.62;5337260;26;33019;-95
2021/04/06 01:29:46;;;;;;;;;;;;;;;15.54;33.02;98781.78;5354361;26;32271;-93
2021/04/06 01:32:23;;;;;;;;;;;;;;;15.24;33.40;98780.25;5357293;26;32744;-94
2021/04/06 01:34:54;;;;;;;;;;;;;;;15.36;33.05;98791.72;5354300;26;33064;-93
2021/04/06 01:37:24;;;;;;;;;;;;;;;14.59;34.45;98780.91;5354762;26;33270;-93
2021/04/06 01:39:54;;;;;;;;;;;;;;;12.91;37.55;98800.28;5354257;26;32065;-93
2021/04/06 01:42:24;;;;;;;;;;;;;;;13.36;37.00;98803.87;5355172;26;32949;-93
2021/04/06 01:44:55;;;;;;;;;;;;;;;13.66;36.39;98797.78;5355606;26;33507;-94
2021/04/06 01:47:25;;;;;;;;;;;;;;;12.85;37.91;98818.91;5373223;26;33446;-93
2021/04/06 01:49:56;;;;;;;;;;;;;;;12.27;39.48;98822.91;5355920;26;33941;-93
2021/04/06 01:52:28;;;;;;;;;;;;;;;12.27;39.53;98834.19;5356719;26;32977;-92
2021/04/06 01:55:04;;;;;;;;;;;;;;;12.48;38.83;98844.44;5354907;26;33515;-93
2021/04/06 01:57:37;;;;;;;;;;;;;;;12.77;38.30;98861.16;5374307;26;33156;-93
2021/04/06 02:00:15;;;;;;;;;;;;;;;12.87;38.54;98869.38;5376021;26;33619;-92
2021/04/06 02:02:45;;;;;;;;;;;;;;;12.88;38.32;98881.47;5377134;26;33659;-93
2021/04/06 02:05:13;;;;;;;;;;;;;;;12.40;39.26;98884.00;5356391;26;34208;-93
2021/04/06 02:07:49;;;;;;;;;;;;;;;12.18;39.67;98894.75;5338660;26;33125;-93
2021/04/06 02:10:19;;;;;;;;;;;;;;;12.12;40.12;98897.66;5355937;26;32515;-94
2021/04/06 02:12:46;;;;;;;;;;;;;;;11.91;40.40;98899.53;5354357;26;33042;-92
2021/04/06 02:15:14;;;;;;;;;;;;;;;12.14;39.61;98888.00;5373053;26;33394;-93
2021/04/06 02:17:48;;;;;;;;;;;;;;;11.41;41.34;98901.09;5335408;26;34734;-93
2021/04/06 02:20:22;;;;;;;;;;;;;;;11.44;41.54;98890.53;5353711;26;32212;-93
2021/04/06 02:23:00;;;;;;;;;;;;;;;11.73;40.97;98891.72;5356877;26;32751;-91
2021/04/06 02:25:29;;;;;;;;;;;;;;;11.43;41.63;98889.66;5373772;26;33079;-92
2021/04/06 02:27:58;;;;;;;;;;;;;;;11.46;41.37;98889.53;5354189;26;33300;-94
2021/04/06 02:30:32;;;;;;;;;;;;;;;11.35;41.76;98887.44;5354268;26;32485;-93
2021/04/06 02:33:00;;;;;;;;;;;;;;;10.89;43.12;98889.59;5354608;26;32867;-94
2021/04/06 02:35:28;;;;;;;;;;;;;;;10.64;43.56;98889.84;5372896;26;34342;-93
2021/04/06 02:37:55;;;;;;;;;;;;;;;10.91;42.87;98884.31;5354837;26;34454;-94
2021/04/06 02:40:25;;;;;;;;;;;;;;;10.91;42.65;98892.97;5335945;26;33114;-92
2021/04/06 02:42:55;;;;;;;;;;;;;;;10.16;44.31;98894.50;5354258;26;33521;-92
2021/04/06 02:45:26;;;;;;;;;;;;;;;10.91;42.29;98907.75;5373444;26;33802;-94
2021/04/06 02:48:05;;;;;;;;;;;;;;;10.69;42.88;98914.78;5355966;26;32981;-92
2021/04/06 02:50:33;;;;;;;;;;;;;;;10.50;42.52;98903.47;5374480;26;33078;-93
2021/04/06 02:53:04;;;;;;;;;;;;;;;10.97;41.50;98902.28;5354147;26;33427;-92
2021/04/06 02:55:32;;;;;;;;;;;;;;;11.02;41.13;98895.94;5354578;26;34004;-92
2021/04/06 02:58:14;;;;;;;;;;;;;;;11.13;40.48;98894.59;5373130;26;32736;-92
2021/04/06 03:00:42;;;;;;;;;;;;;;;10.57;41.45;98899.72;5354002;26;32139;-91
2021/04/06 03:03:25;;;;;;;;;;;;;;;10.16;42.62;98899.72;5354407;26;32519;-92
2021/04/06 03:06:01;;;;;;;;;;;;;;;10.23;42.62;98905.50;5354643;26;33338;-92
2021/04/06 03:08:29;;;;;;;;;;;;;;;10.10;42.24;98912.97;5354014;26;32796;-92
2021/04/06 03:10:57;;;;;;;;;;;;;;;10.55;41.36;98898.91;5354412;26;33597;-92
2021/04/06 03:13:25;;;;;;;;;;;;;;;10.42;41.54;98906.41;5353989;26;33231;-91
2021/04/06 03:15:56;;;;;;;;;;;;;;;10.50;40.56;98899.12;5355495;26;32802;-91
2021/04/06 03:18:31;;;;;;;;;;;;;;;10.68;40.22;98901.81;5355110;26;32904;-90
2021/04/06 03:21:07;;;;;;;;;;;;;;;10.85;39.32;98899.31;5356091;26;32426;-90
2021/04/06 03:23:38;;;;;;;;;;;;;;;10.25;40.55;98909.75;5373134;26;32633;-91
2021/04/06 03:26:08;;;;;;;;;;;;;;;10.75;39.43;98905.84;5356465;26;32915;-92
2021/04/06 03:28:36;;;;;;;;;;;;;;;10.02;40.87;98908.97;5354727;26;33058;-92
2021/04/06 03:31:07;;;;;;;;;;;;;;;10.99;39.13;98901.25;5354912;26;32418;-93
2021/04/06 03:33:36;;;;;;;;;;;;;;;11.39;37.42;98906.38;5373483;26;33935;-93
2021/04/06 03:36:04;;;;;;;;;;;;;;;11.52;36.73;98917.06;5373657;26;33677;-92
2021/04/06 03:38:34;;;;;;;;;;;;;;;11.02;38.49;98919.37;5376116;26;33011;-92
2021/04/06 03:41:03;;;;;;;;;;;;;;;10.92;38.02;98930.31;5356479;26;32187;-92
2021/04/06 03:43:38;;;;;;;;;;;;;;;11.40;37.46;98941.16;5355248;26;32914;-91
2021/04/06 03:46:07;;;;;;;;;;;;;;;11.30;37.14;98946.78;5355784;26;33366;-92
2021/04/06 03:48:35;;;;;;;;;;;;;;;10.86;37.98;98952.25;5355978;26;33081;-92
2021/04/06 03:51:03;;;;;;;;;;;;;;;10.99;37.89;98948.19;5375176;26;33480;-93
2021/04/06 03:53:38;;;;;;;;;;;;;;;11.12;36.44;98960.69;5374082;26;33936;-92
2021/04/06 03:56:07;;;;;;;;;;;;;;;10.55;38.41;98955.38;5374282;26;34046;-91
2021/04/06 03:58:48;;;;;;;;;;;;;;;11.01;37.40;98977.63;5338701;26;32667;-93
2021/04/06 04:01:15;;;;;;;;;;;;;;;11.16;36.94;98968.28;5357691;26;31827;-92
2021/04/06 04:03:58;;;;;;;;;;;;;;;11.00;37.16;98978.56;5359956;26;33388;-93
2021/04/06 04:06:25;;;;;;;;;;;;;;;11.21;37.02;98983.72;5354944;26;33459;-93
2021/04/06 04:09:08;;;;;;;;;;;;;;;12.05;34.95;98980.66;5358770;26;33547;-92
2021/04/06 04:11:35;;;;;;;;;;;;;;;11.59;35.67;98995.91;5351944;26;32349;-92
2021/04/06 04:14:05;;;;;;;;;;;;;;;10.77;36.38;98991.75;5371052;26;33060;-92
2021/04/06 04:16:36;;;;;;;;;;;;;;;11.20;36.22;98989.84;5352482;26;33233;-92
2021/04/06 04:19:04;;;;;;;;;;;;;;;10.20;37.58;98985.41;5352072;26;34368;-93
2021/04/06 04:21:32;;;;;;;;;;;;;;;10.49;36.88;98986.00;5351049;26;32775;-91
2021/04/06 04:23:59;;;;;;;;;;;;;;;10.54;36.54;99004.00;5369770;26;34085;-92
2021/04/06 04:26:26;;;;;;;;;;;;;;;10.67;36.26;99004.34;5352473;26;33129;-92
2021/04/06 04:28:54;;;;;;;;;;;;;;;11.08;35.49;99000.84;5354320;26;33082;-91
2021/04/06 04:31:25;;;;;;;;;;;;;;;10.04;36.99;98997.38;5337110;26;32551;-91
2021/04/06 04:33:52;;;;;;;;;;;;;;;10.56;35.81;99017.00;5355056;26;32914;-92
2021/04/06 04:36:20;;;;;;;;;;;;;;;11.03;34.62;99022.75;5354098;26;32809;-91
2021/04/06 04:38:47;;;;;;;;;;;;;;;11.33;33.97;99019.66;5372981;26;33689;-92
2021/04/06 04:41:14;;;;;;;;;;;;;;;11.49;33.52;99029.41;5353662;26;31728;-91
2021/04/06 04:43:41;;;;;;;;;;;;;;;11.47;33.23;99039.03;5353261;26;34380;-91
2021/04/06 04:46:10;;;;;;;;;;;;;;;10.90;34.30;99039.81;5372333;26;32976;-91
2021/04/06 04:48:37;;;;;;;;;;;;;;;11.05;33.48;99045.28;5353493;26;32866;-91
2021/04/06 04:51:04;;;;;;;;;;;;;;;10.20;34.92;99031.44;5353514;26;33382;-91
2021/04/06 04:53:32;;;;;;;;;;;;;;;10.83;33.61;99051.44;5372197;26;32909;-91
2021/04/06 04:56:00;;;;;;;;;;;;;;;11.02;33.21;99061.88;5373118;26;34414;-90
2021/04/06 04:58:27;;;;;;;;;;;;;;;10.13;34.51;99071.63;5353595;26;32721;-90
2021/04/06 05:00:58;;;;;;;;;;;;;;;10.37;33.59;99069.84;5354505;26;32224;-91
2021/04/06 05:03:29;;;;;;;;;;;;;;;10.71;33.23;99084.06;5354952;26;32827;-92
2021/04/06 05:06:00;;;;;;;;;;;;;;;10.00;34.52;99098.12;5354686;26;33314;-92
2021/04/06 05:08:27;;;;;;;;;;;;;;;10.55;33.48;99089.06;5353512;26;33568;-91
2021/04/06 05:10:55;;;;;;;;;;;;;;;10.15;33.92;99088.88;5353366;26;32473;-92
2021/04/06 05:13:25;;;;;;;;;;;;;;;10.66;32.85;99102.50;5353416;26;34417;-92
2021/04/06 05:15:53;;;;;;;;;;;;;;;11.00;32.44;99098.44;5354126;26;33464;-91
2021/04/06 05:18:21;;;;;;;;;;;;;;;10.44;33.24;99099.09;5353558;26;33972;-91
2021/04/06 05:20:51;;;;;;;;;;;;;;;10.65;32.72;99097.31;5371953;26;32820;-93
2021/04/06 05:23:21;;;;;;;;;;;;;;;9.71;34.25;99101.84;5354519;26;33347;-91
2021/04/06 05:25:56;;;;;;;;;;;;;;;11.03;31.94;99118.31;5373890;26;34524;-90
2021/04/06 05:28:24;;;;;;;;;;;;;;;10.63;32.93;99120.84;5355236;26;33012;-94
2021/04/06 05:30:53;;;;;;;;;;;;;;;10.60;32.59;99118.38;5357291;26;31678;-93
2021/04/06 05:33:29;;;;;;;;;;;;;;;10.77;32.15;99119.41;5358107;26;32883;-92
2021/04/06 05:35:56;;;;;;;;;;;;;;;11.19;31.47;99122.00;5304046;26;908188;-91
2021/04/06 05:38:44;;;;;;;;;;;;;;;10.99;31.88;99122.81;5381155;26;32941;-92
2021/04/06 05:41:13;;;;;;;;;;;;;;;10.93;32.13;99115.28;5362126;26;32175;-93
2021/04/06 05:43:46;;;;;;;;;;;;;;;11.02;31.69;99116.63;5363462;26;33045;-93
2021/04/06 05:46:21;;;;;;;;;;;;;;;10.65;32.37;99121.62;5362665;26;34308;-94
2021/04/06 05:49:12;;;;;;;;;;;;;;;11.10;31.73;99118.91;5308543;27;34200;-87
2021/04/06 05:51:44;;;;;;;;;;;;;;;10.97;32.13;99116.00;5304578;27;33861;-89
2021/04/06 05:54:25;;;;;;;;;;;;;;;10.53;32.20;99119.53;5285410;27;33236;-88
2021/04/06 05:56:53;;;;;;;;;;;;;;;10.71;32.38;99114.47;5264050;27;36941;-87
2021/04/06 05:59:26;;;;;;;;;;;;;;;10.67;32.73;99118.97;5304464;27;34914;-87
2021/04/06 06:02:01;;;;;;;;;;;;;;;10.08;33.19;99118.66;5291529;26;32955;-87
2021/04/06 06:04:28;;;;;;;;;;;;;;;11.03;31.46;99136.56;5298739;26;34173;-88
2021/04/06 06:06:56;;;;;;;;;;;;;;;10.80;31.55;99135.78;5303967;26;34002;-89
2021/04/06 06:09:34;;;;;;;;;;;;;;;10.79;31.40;99138.47;5304493;26;33205;-86
2021/04/06 06:12:11;;;;;;;;;;;;;;;10.53;31.92;99136.00;5324898;26;33298;-87
2021/04/06 06:14:42;;;;;;;;;;;;;;;11.10;30.62;99153.66;5305134;26;33716;-90
2021/04/06 06:17:13;;;;;;;;;;;;;;;9.95;32.16;99159.09;5286034;26;34294;-88
2021/04/06 06:19:44;;;;;;;;;;;;;;;10.87;30.79;99157.22;5304836;26;33170;-87
2021/04/06 06:22:17;;;;;;;;;;;;;;;11.11;30.36;99167.53;5323619;26;33135;-86
2021/04/06 06:24:48;;;;;;;;;;;;;;;10.70;30.97;99165.72;5304981;26;32866;-89
2021/04/06 06:27:23;;;;;;;;;;;;;;;10.50;30.75;99172.59;5323298;26;33886;-90
2021/04/06 06:29:52;;;;;;;;;;;;;;;10.49;30.84;99170.91;5286361;26;34920;-89
2021/04/06 06:32:22;;;;;;;;;;;;;;;10.27;30.94;99168.25;5323811;26;34046;-88
2021/04/06 06:34:52;;;;;;;;;;;;;;;10.16;31.05;99162.63;5304714;26;34098;-89
2021/04/06 06:37:26;;;;;;;;;;;;;;;10.12;30.83;99171.47;5342720;26;34236;-90
2021/04/06 06:40:00;;;;;;;;;;;;;;;10.07;31.03;99165.59;5326956;26;34690;-88
2021/04/06 06:42:39;;;;;;;;;;;;;;;10.25;30.62;99180.50;5310359;26;32329;-86
2021/04/06 06:45:24;;;;;;;;;;;;;;;10.36;30.94;99182.72;5313130;26;33684;-86
2021/04/06 06:47:57;;;;;;;;;;;;;;;10.63;30.20;99198.16;5309950;26;33738;-87
2021/04/06 06:50:27;;;;;;;;;;;;;;;11.07;29.36;99200.72;5305110;26;34713;-86
2021/04/06 06:53:01;;;;;;;;;;;;;;;11.05;29.61;99210.38;5325214;26;34286;-86
2021/04/06 06:55:34;;;;;;;;;;;;;;;10.89;29.47;99227.53;5305999;26;33319;-87
2021/04/06 06:58:02;;;;;;;;;;;;;;;11.15;29.06;99222.09;5323011;26;34032;-88
2021/04/06 07:00:29;;;;;;;;;;;;;;;11.03;29.48;99218.25;5322734;26;33304;-85
2021/04/06 07:02:56;;;;;;;;;;;;;;;10.71;30.13;99224.75;5304097;26;32223;-89
2021/04/06 07:05:27;;;;;;;;;;;;;;;11.25;29.02;99225.16;5322941;26;34011;-87
2021/04/06 07:07:57;;;;;;;;;;;;;;;11.13;29.01;99226.53;5321806;26;34271;-88
2021/04/06 07:10:38;;;;;;;;;;;;;;;11.29;29.04;99226.75;5342397;26;34018;-84
2021/04/06 07:13:05;;;;;;;;;;;;;;;11.51;28.67;99221.47;5286175;26;32370;-83
2021/04/06 07:15:39;;;;;;;;;;;;;;;11.16;29.06;99225.56;5341385;26;33940;-88
2021/04/06 07:18:34;;;;;;;;;;;;;;;10.79;29.94;99227.06;5305619;26;33399;-86
2021/04/06 07:21:21;;;;;;;;;;;;;;;10.34;30.81;99226.16;5308296;26;33694;-88
2021/04/06 07:24:09;;;;;;;;;;;;;;;11.31;29.08;99224.06;5288345;26;34129;-87
2021/04/06 07:26:44;;;;;;;;;;;;;;;12.02;28.12;99229.69;5305346;26;33993;-90
2021/04/06 07:29:16;;;;;;;;;;;;;;;11.80;28.12;99219.31;5305611;26;33416;-90
2021/04/06 07:32:10;;;;;;;;;;;;;;;11.96;28.44;99223.91;5326042;26;35100;-89
2021/04/06 07:34:53;;;;;;;;;;;;;;;11.86;28.40;99220.84;5306835;26;32574;-89
2021/04/06 07:37:31;;;;;;;;;;;;;;;12.53;27.44;99208.22;5308498;26;34953;-88
2021/04/06 07:40:10;;;;;;;;;;;;;;;12.42;27.13;99207.87;5305694;26;33477;-89
2021/04/06 07:42:49;;;;;;;;;;;;;;;11.81;27.42;99221.03;5327389;26;35043;-89
2021/04/06 07:45:25;;;;;;;;;;;;;;;12.60;27.13;99219.22;5311361;26;32387;-87
2021/04/06 07:48:06;;;;;;;;;;;;;;;12.89;25.91;99215.22;5338964;26;33899;-87
2021/04/06 07:50:38;;;;;;;;;;;;;;;12.71;26.42;99222.19;5321759;26;34740;-86
2021/04/06 07:53:25;;;;;;;;;;;;;;;12.05;26.96;99227.88;5332622;26;32505;-87
2021/04/06 07:55:57;;;;;;;;;;;;;;;13.00;25.76;99220.78;5311497;26;32290;-87
2021/04/06 07:58:47;;;;;;;;;;;;;;;12.89;25.88;99237.91;5330773;26;34163;-87
2021/04/06 08:01:26;;;;;;;;;;;;;;;13.23;25.96;99239.72;5310461;26;33053;-87
2021/04/06 08:03:57;;;;;;;;;;;;;;;13.22;25.69;99240.63;5326796;26;34244;-87
2021/04/06 08:06:29;;;;;;;;;;;;;;;13.51;24.86;99262.72;5288260;26;32600;-86
2021/04/06 08:08:57;;;;;;;;;;;;;;;11.68;26.92;99256.41;5324106;26;33895;-88
2021/04/06 08:11:48;;;;;;;;;;;;;;;11.82;26.46;99261.00;5323925;26;33651;-86
2021/04/06 08:14:16;;;;;;;;;;;;;;;12.28;25.34;99269.44;5323599;26;33796;-87
2021/04/06 08:16:55;;;;;;;;;;;;;;;12.19;25.62;99264.63;5324412;26;33027;-88
2021/04/06 08:19:31;;;;;;;;;;;;;;;12.25;26.03;99274.81;5306020;26;33017;-90
2021/04/06 08:22:22;;;;;;;;;;;;;;;12.48;25.53;99262.47;5305795;26;32762;-88
2021/04/06 08:25:17;;;;;;;;;;;;;;;11.79;25.92;99280.28;5323174;26;33353;-88
2021/04/06 08:27:53;;;;;;;;;;;;;;;12.00;25.61;99273.28;5322419;26;33582;-87
2021/04/06 08:30:34;;;;;;;;;;;;;;;12.32;25.05;99260.53;5306663;26;33096;-88
2021/04/06 08:33:18;;;;;;;;;;;;;;;11.52;25.48;99266.66;5306223;26;32853;-89
2021/04/06 08:36:05;;;;;;;;;;;;;;;12.34;24.45;99269.16;5307664;26;33435;-90
2021/04/06 08:38:41;;;;;;;;;;;;;;;12.00;24.86;99272.44;5304540;26;33288;-88
2021/04/06 08:41:23;;;;;;;;;;;;;;;11.23;25.87;99273.09;5321526;26;34532;-89
2021/04/06 08:44:12;;;;;;;;;;;;;;;12.08;25.06;99279.94;5325427;26;33347;-89
2021/04/06 08:47:00;;;;;;;;;;;;;;;12.29;24.33;99284.19;5325721;26;34103;-89
2021/04/06 08:49:30;;;;;;;;;;;;;;;12.33;24.45;99284.91;5324077;26;32678;-89
2021/04/06 08:52:01;;;;;;;;;;;;;;;12.38;23.86;99285.56;5326330;26;34692;-86
2021/04/06 08:54:44;;;;;;;;;;;;;;;13.11;23.24;99297.81;5329879;26;33391;-89
2021/04/06 08:57:15;;;;;;;;;;;;;;;12.99;22.73;99294.03;5322594;26;33260;-89
2021/04/06 08:59:46;;;;;;;;;;;;;;;12.65;23.36;99299.09;5322119;26;32794;-86
2021/04/06 09:02:17;;;;;;;;;;;;;;;12.72;23.26;99306.66;5294141;26;34182;-88
2021/04/06 09:04:56;;;;;;;;;;;;;;;13.11;22.95;99292.59;5327082;26;33675;-88
2021/04/06 09:07:31;;;;;;;;;;;;;;;13.04;22.96;99299.91;5303382;26;35124;-89
2021/04/06 09:09:59;;;;;;;;;;;;;;;13.50;22.18;99300.28;5322371;26;33150;-89
2021/04/06 09:12:29;;;;;;;;;;;;;;;13.33;21.24;99282.78;5342165;26;34902;-89
2021/04/06 09:15:06;;;;;;;;;;;;;;;13.14;22.32;99271.53;5305015;26;35124;-89
2021/04/06 09:18:02;;;;;;;;;;;;;;;13.11;22.87;99280.38;5327178;26;35041;-88
2021/04/06 09:20:31;;;;;;;;;;;;;;;14.23;21.41;99269.53;5323623;26;33805;-90
2021/04/06 09:22:59;;;;;;;;;;;;;;;14.97;20.70;99279.47;5305046;26;33941;-88
2021/04/06 09:25:28;;;;;;;;;;;;;;;15.01;20.38;99281.00;5304200;26;34147;-88
2021/04/06 09:27:56;;;;;;;;;;;;;;;15.12;20.38;99279.53;5305022;26;34635;-86
2021/04/06 09:30:53;;;;;;;;;;;;;;;15.31;20.19;99289.81;5344571;26;34346;-88
2021/04/06 09:37:40;;;;;;;;;;;;;;;15.10;19.63;99312.88;5255235;27;32532;-87
2021/04/06 09:44:43;;;;;;;;;;;;;;;;;;;;;
2021/04/06 09:48:20;;;;;;;;;;;;;;;15.64;18.51;99315.87;5107866;27;35576;-89
2021/04/06 09:51:28;;;;;;;;;;;;;;;14.93;19.19;99327.78;5195432;27;35065;-87
2021/04/06 09:54:28;;;;;;;;;;;;;;;15.28;18.80;99330.19;5222071;27;34796;-88
2021/04/06 09:58:09;;;;;;;;;;;;;;;15.29;18.84;99338.91;5199351;27;34288;-87
2021/04/06 10:01:22;;;;;;;;;;;;;;;15.02;19.01;99340.41;5176808;27;34578;-87
2021/04/06 10:08:29;;;;;;;;;;;;;;;15.02;19.01;99353.53;5130545;27;35607;-89
2021/04/06 10:12:02;;;;;;;;;;;;;;;15.00;18.99;99352.75;5138459;27;32359;-86
2021/04/06 10:15:48;;;;;;;;;;;;;;;14.72;19.23;99342.94;5229412;27;34280;-86
2021/04/06 10:19:59;;;;;;;;;;;;;;;15.30;18.78;99351.97;5148770;27;35059;-90
2021/04/06 10:23:36;;;;;;;;;;;;;;;15.51;18.85;99338.53;5167299;27;33056;-89
2021/04/06 10:26:29;;;;;;;;;;;;;;;15.16;19.20;99338.78;5156462;27;32443;-87
2021/04/06 10:29:10;;;;;;;;;;;;;;;15.13;19.43;99328.44;5138192;27;33580;-87
2021/04/06 10:35:10;;;;;;;;;;;;;;;15.93;18.81;99326.47;5150719;27;32975;-85
2021/04/06 10:41:29;;;;;;;;;;;;;;;15.81;18.47;99316.72;5202632;27;35113;-88
2021/04/06 10:44:17;;;;;;;;;;;;;;;15.36;18.36;99314.84;5194395;26;34263;-87
2021/04/06 10:46:48;;;;;;;;;;;;;;;15.60;17.94;99300.41;5305467;26;33144;-88
2021/04/06 10:49:29;;;;;;;;;;;;;;;16.01;17.34;99287.44;5324017;26;33873;-87
2021/04/06 10:52:10;;;;;;;;;;;;;;;15.70;17.65;99286.63;5305394;26;33538;-87
2021/04/06 10:54:51;;;;;;;;;;;;;;;15.76;17.98;99277.53;5306151;26;32733;-86
2021/04/06 10:57:31;;;;;;;;;;;;;;;15.38;17.84;99291.13;5323571;26;34107;-88
2021/04/06 11:00:32;;;;;;;;;;;;;;;;;;;;;
2021/04/06 11:03:58;;;;;;;;;;;;;;;15.76;17.83;99281.97;5221744;27;34789;-87
2021/04/06 11:06:31;;;;;;;;;;;;;;;15.88;17.53;99270.75;5258793;26;33551;-89
2021/04/06 11:09:10;;;;;;;;;;;;;;;16.17;17.14;99276.84;5258767;27;33182;-86
2021/04/06 11:11:53;;;;;;;;;;;;;;;16.24;16.62;99289.63;5259616;26;33115;-87
2021/04/06 11:14:51;;;;;;;;;;;;;;;16.37;16.79;99280.84;5263284;27;34404;-89
2021/04/06 11:17:44;;;;;;;;;;;;;;;15.82;16.67;99269.34;5278679;26;34293;-86
2021/04/06 11:20:17;;;;;;;;;;;;;;;15.92;16.72;99268.78;5279353;27;34502;-89
2021/04/06 11:23:06;;;;;;;;;;;;;;;16.03;16.85;99277.69;5261983;27;32584;-88
2021/04/06 11:26:14;;;;;;;;;;;;;;;;;;;;;
2021/04/06 11:29:42;;;;;;;;;;;;;;;15.66;17.24;99272.00;5194425;27;34255;-87
2021/04/06 11:32:24;;;;;;;;;;;;;;;15.68;17.39;99272.75;5170289;27;33796;-87
2021/04/06 11:35:08;;;;;;;;;;;;;;;15.88;17.13;99276.00;5300506;26;33517;-88
2021/04/06 11:38:51;;;;;;;;;;;;;;;;;;;;;
2021/04/06 11:41:23;;;;;;;;;;;;;;;15.83;17.52;99275.41;5247409;27;34384;-88
2021/04/06 11:43:58;;;;;;;;;;;;;;;16.46;16.99;99263.69;5268515;27;33442;-86
2021/04/06 11:50:33;;;;;;;;;;;;;;;16.47;16.31;99272.41;5193923;27;34510;-89
2021/04/06 11:53:57;;;;;;;;;;;;;;;16.59;15.95;99268.97;5261880;27;34206;-88
2021/04/06 11:57:51;;;;;;;;;;;;;;;16.28;16.20;99265.66;5245242;27;34298;-88
2021/04/06 12:01:40;;;;;;;;;;;;;;;15.64;16.40;99265.16;5255004;27;34652;-88
2021/04/06 12:08:52;;;;;;;;;;;;;;;16.79;15.83;99251.09;5098872;28;34439;-88
2021/04/06 12:11:24;;;;;;;;;;;;;;;16.22;16.25;99245.03;5095221;27;34009;-89
2021/04/06 12:14:24;;;;;;;;;;;;;;;16.33;16.31;99252.25;5136508;27;32773;-89
2021/04/06 12:17:13;;;;;;;;;;;;;;;16.58;16.11;99245.41;5134562;27;34352;-86
2021/04/06 12:19:56;;;;;;;;;;;;;;;15.61;16.70;99254.81;5151332;27;33835;-88
2021/04/06 12:22:23;;;;;;;;;;;;;;;15.88;16.53;99254.16;5166581;27;34348;-86
2021/04/06 12:25:20;;;;;;;;;;;;;;;15.83;16.71;99259.66;5152137;27;33215;-87
2021/04/06 12:28:30;;;;;;;;;;;;;;;16.41;16.16;99254.41;5166621;27;33822;-87
2021/04/06 12:35:03;;;;;;;;;;;;;;;16.11;15.96;99263.22;5072267;28;34476;-88
2021/04/06 12:37:41;;;;;;;;;;;;;;;16.08;15.87;99258.19;5093745;28;35887;-89
2021/04/06 12:40:17;;;;;;;;;;;;;;;16.07;15.65;99259.94;5111590;28;34489;-87
2021/04/06 12:43:40;;;;;;;;;;;;;;;16.22;15.53;99252.91;5118682;27;34018;-86
2021/04/06 12:47:07;;;;;;;;;;;;;;;15.24;16.65;99251.75;5181533;27;35321;-88
2021/04/06 12:49:50;;;;;;;;;;;;;;;15.93;15.66;99252.06;5197046;27;34007;-85
2021/04/06 12:52:18;;;;;;;;;;;;;;;15.58;15.93;99252.38;5200122;27;33888;-86
2021/04/06 12:54:50;;;;;;;;;;;;;;;15.64;15.87;99244.16;5199830;27;33415;-86
2021/04/06 12:57:25;;;;;;;;;;;;;;;15.04;16.37;99230.13;5252122;27;34361;-88
2021/04/06 13:00:06;;;;;;;;;;;;;;;15.53;15.92;99235.12;5233119;27;32999;-87
2021/04/06 13:06:07;;;;;;;;;;;;;;;16.12;15.19;99217.63;5237432;27;32747;-88
2021/04/06 13:09:36;;;;;;;;;;;;;;;16.96;14.51;99210.56;5240526;27;35883;-87
2021/04/06 13:16:30;;;;;;;;;;;;;;;16.34;15.16;99201.34;5150148;27;34805;-88
2021/04/06 13:19:15;;;;;;;;;;;;;;;16.53;14.65;99196.59;5237381;27;33959;-88
2021/04/06 13:21:55;;;;;;;;;;;;;;;16.70;14.75;99197.31;5307894;26;33725;-87
2021/04/06 13:32:08;;;;;;;;;;;;;;;16.48;14.67;99203.94;5131197;27;35037;-86
2021/04/06 13:34:54;;;;;;;;;;;;;;;16.06;14.87;99195.22;5132632;27;34927;-87
2021/04/06 13:41:55;;;;;;;;;;;;;;;;;;;;;
2021/04/06 13:49:14;;;;;;;;;;;;;;;16.93;14.45;99166.03;5066841;28;34242;-89
2021/04/06 14:01:53;;;;;;;;;;;;;;;17.59;13.66;99174.75;5048387;28;33262;-90
2021/04/06 15:03:22;;;;;;;;;;;;;;;17.04;13.65;99155.63;5332620;26;35218;-94
2021/04/06 15:05:51;;;;;;;;;;;;;;;16.87;13.87;99146.19;5363036;26;33070;-92
2021/04/06 15:08:23;;;;;;;;;;;;;;;17.05;13.79;99138.06;5364690;26;32641;-94
2021/04/06 15:10:55;;;;;;;;;;;;;;;17.03;13.87;99139.00;5362043;26;32794;-93
2021/04/06 15:13:23;;;;;;;;;;;;;;;16.68;13.99;99149.22;5361749;26;33129;-94
2021/04/06 15:15:54;;;;;;;;;;;;;;;17.32;13.61;99146.72;5361732;26;33170;-94
2021/04/06 15:18:22;;;;;;;;;;;;;;;17.49;13.66;99132.37;5382350;26;33723;-94
2021/04/06 15:20:50;;;;;;;;;;;;;;;17.65;13.61;99132.16;5362806;26;32439;-95
2021/04/06 15:23:25;;;;;;;;;;;;;;;17.68;13.50;99142.50;5366780;26;33484;-93
2021/04/06 15:25:54;;;;;;;;;;;;;;;17.73;13.53;99143.97;5363155;26;33108;-94
2021/04/06 15:28:25;;;;;;;;;;;;;;;17.41;14.02;99136.50;5364242;26;32055;-94
2021/04/06 15:30:53;;;;;;;;;;;;;;;17.23;14.06;99142.09;5362682;26;32549;-94
2021/04/06 15:33:26;;;;;;;;;;;;;;;17.53;13.62;99141.75;5365003;26;32883;-94
2021/04/06 15:35:54;;;;;;;;;;;;;;;17.62;13.44;99140.28;5362815;26;34383;-95
2021/04/06 15:38:35;;;;;;;;;;;;;;;17.31;13.55;99141.53;5365726;26;33451;-94
2021/04/06 15:41:03;;;;;;;;;;;;;;;17.69;13.37;99149.41;5363091;26;32856;-93
2021/04/06 15:43:43;;;;;;;;;;;;;;;16.76;14.21;99159.22;5366317;26;33133;-94
2021/04/06 15:46:13;;;;;;;;;;;;;;;17.41;13.90;99153.13;5364139;26;32882;-93
2021/04/06 15:49:01;;;;;;;;;;;;;;;17.26;14.22;99154.19;5367457;26;33544;-93
2021/04/06 15:51:29;;;;;;;;;;;;;;;17.19;14.47;99151.12;5367025;26;32993;-92
2021/04/06 15:54:01;;;;;;;;;;;;;;;16.26;15.32;99154.53;5369223;26;33266;-93